Time;durP1;ratioP1;P1;durP2;ratioP2;P2;SDS_P1;SDS_P2;PMS_P1;PMS_P2;Temp;Humidity;BMP_temperature;BMP_pressure;BME280_temperature;BME280_humidity;BME280_pressure;Samples;Min_cycle;Max_cycle;Signal;HPM_P1;HPM_P2
2022/10/10 16:05:40;;;;;;;2.47;1.90;;;29.10;81.10;;;;;;5113906;27;21089;-49
2022/10/10 16:08:07;;;;;;;3.30;1.87;;;26.20;86.20;;;;;;5102204;28;20821;-51
2022/10/10 16:10:37;;;;;;;5.93;2.10;;;25.40;90.00;;;;;;5100198;28;20455;-67
2022/10/10 16:13:04;;;;;;;2.60;1.60;;;24.80;91.40;;;;;;5094847;28;20544;-51
2022/10/10 16:15:31;;;;;;;2.63;1.90;;;24.80;92.00;;;;;;5083127;28;20467;-43
2022/10/10 16:17:58;;;;;;;6.20;2.00;;;24.80;91.50;;;;;;5068082;28;20463;-54
2022/10/10 16:20:24;;;;;;;2.80;1.47;;;24.10;92.60;;;;;;5058990;28;20434;-58
2022/10/10 16:22:52;;;;;;;2.03;1.67;;;23.40;94.30;;;;;;5063733;28;20448;-55
2022/10/10 16:25:19;;;;;;;3.83;2.17;;;23.20;95.50;;;;;;5018463;28;20486;-57
2022/10/10 16:27:46;;;;;;;2.43;1.90;;;23.00;96.10;;;;;;5059170;28;20453;-56
2022/10/10 16:30:13;;;;;;;2.43;1.90;;;23.00;96.50;;;;;;5074343;28;20541;-60
2022/10/10 16:32:39;;;;;;;2.80;1.37;;;23.00;96.80;;;;;;5060004;28;20871;-58
2022/10/10 16:35:06;;;;;;;3.03;1.73;;;23.00;96.90;;;;;;5070632;28;20452;-59
2022/10/10 16:37:33;;;;;;;2.00;1.43;;;23.00;96.90;;;;;;5022605;28;80723;-58
2022/10/10 16:40:01;;;;;;;2.27;1.77;;;22.90;97.00;;;;;;5056648;28;74707;-61
2022/10/10 16:42:54;;;;;;;3.00;1.50;;;23.00;97.10;;;;;;5049217;27;66842;-57
2022/10/10 16:45:21;;;;;;;2.03;1.73;;;23.00;97.10;;;;;;5051412;28;20461;-58
2022/10/10 16:47:48;;;;;;;2.83;1.40;;;23.00;97.10;;;;;;5055546;28;20801;-59
2022/10/10 16:50:15;;;;;;;3.10;1.70;;;23.00;97.20;;;;;;5062651;28;20932;-61
2022/10/10 16:52:41;;;;;;;3.50;1.67;;;23.00;97.20;;;;;;5070039;28;20460;-58
2022/10/10 16:55:10;;;;;;;4.33;3.20;;;23.00;97.20;;;;;;5062459;28;20808;-57
2022/10/10 16:57:36;;;;;;;5.53;4.00;;;23.00;97.10;;;;;;5056905;28;20457;-60
2022/10/10 17:00:07;;;;;;;6.40;4.70;;;23.00;97.10;;;;;;5055172;28;20816;-56
2022/10/10 17:02:33;;;;;;;8.30;4.87;;;22.90;97.00;;;;;;5055380;28;20475;-56
2022/10/10 17:05:00;;;;;;;9.27;5.80;;;22.90;97.00;;;;;;5058047;28;20452;-60
2022/10/10 17:07:27;;;;;;;9.80;6.50;;;22.90;97.10;;;;;;5050223;28;20816;-61
2022/10/10 17:09:53;;;;;;;9.73;6.83;;;22.90;97.00;;;;;;5054613;28;20452;-58
2022/10/10 17:12:20;;;;;;;10.57;6.77;;;22.80;97.00;;;;;;5055028;28;20458;-61
2022/10/10 17:14:47;;;;;;;10.87;6.73;;;22.80;97.00;;;;;;5064499;28;20465;-61
2022/10/10 17:17:16;;;;;;;9.13;6.43;;;22.80;96.90;;;;;;5057082;28;20987;-55
2022/10/10 17:19:42;;;;;;;10.63;6.53;;;22.90;96.90;;;;;;5058529;28;20551;-62
2022/10/10 17:22:09;;;;;;;9.87;6.80;;;22.80;96.80;;;;;;5058010;28;20477;-62
2022/10/10 17:24:36;;;;;;;10.50;7.67;;;22.90;96.80;;;;;;5063174;28;20736;-61
2022/10/10 17:27:03;;;;;;;8.50;7.60;;;22.90;96.80;;;;;;5070562;28;20488;-61
2022/10/10 17:29:30;;;;;;;10.73;7.83;;;22.80;96.70;;;;;;5056419;28;20527;-58
2022/10/10 17:31:57;;;;;;;8.73;7.60;;;22.90;96.70;;;;;;5053781;28;20955;-61
2022/10/10 17:34:25;;;;;;;9.37;7.90;;;22.90;96.60;;;;;;5051042;28;20548;-52
2022/10/10 17:36:53;;;;;;;12.87;9.40;;;22.90;96.50;;;;;;5047500;28;20458;-58
2022/10/10 17:39:19;;;;;;;12.37;8.23;;;22.90;96.50;;;;;;5054206;28;20547;-62
2022/10/10 17:41:47;;;;;;;14.57;9.00;;;22.90;96.30;;;;;;5054023;28;20495;-60
2022/10/10 17:44:14;;;;;;;12.77;8.63;;;22.90;96.30;;;;;;5052263;28;20465;-59
2022/10/10 17:46:43;;;;;;;9.93;7.60;;;22.80;96.30;;;;;;5050317;28;20791;-58
2022/10/10 17:49:11;;;;;;;12.70;9.10;;;22.80;96.30;;;;;;5051791;28;20453;-60
2022/10/10 17:51:39;;;;;;;13.80;10.20;;;22.80;96.30;;;;;;5046363;28;20469;-60
2022/10/10 17:54:07;;;;;;;12.73;9.30;;;22.80;96.30;;;;;;5034914;28;20454;-56
2022/10/10 17:56:34;;;;;;;13.50;10.37;;;22.80;96.30;;;;;;5038813;28;20462;-59
2022/10/10 17:59:04;;;;;;;13.30;9.93;;;22.80;96.60;;;;;;5038307;28;20459;-59
2022/10/10 18:01:31;;;;;;;12.50;8.97;;;22.80;96.30;;;;;;5046214;28;21009;-56
2022/10/10 18:03:58;;;;;;;15.00;11.20;;;22.80;96.30;;;;;;5049862;28;20450;-59
2022/10/10 18:06:25;;;;;;;12.23;8.77;;;22.80;96.30;;;;;;5053540;28;20948;-58
2022/10/10 18:08:53;;;;;;;14.57;9.77;;;22.70;96.40;;;;;;5053360;28;20454;-57
2022/10/10 18:11:22;;;;;;;12.53;9.33;;;22.70;96.50;;;;;;5039488;28;21268;-55
2022/10/10 18:13:49;;;;;;;12.37;9.30;;;22.70;96.40;;;;;;5054618;28;20464;-58
2022/10/10 18:16:18;;;;;;;10.73;9.73;;;22.70;96.40;;;;;;5047821;28;20504;-56
2022/10/10 18:18:46;;;;;;;15.40;9.20;;;22.80;96.40;;;;;;5052730;28;20964;-58
2022/10/10 18:21:13;;;;;;;14.73;10.03;;;22.80;96.40;;;;;;5058435;28;21006;-59
2022/10/10 18:23:41;;;;;;;15.03;10.07;;;22.80;96.30;;;;;;5061089;28;20456;-56
2022/10/10 18:26:13;;;;;;;12.97;9.13;;;22.90;96.20;;;;;;5041739;28;20461;-59
2022/10/10 18:28:41;;;;;;;15.60;9.07;;;22.90;96.10;;;;;;5042836;28;20457;-60
2022/10/10 18:31:09;;;;;;;12.20;10.20;;;23.00;95.90;;;;;;5034950;28;20960;-59
2022/10/10 18:33:36;;;;;;;13.30;8.93;;;23.00;95.80;;;;;;5042594;28;20462;-56
2022/10/10 18:36:06;;;;;;;13.83;10.30;;;23.10;95.70;;;;;;5035886;28;20462;-53
2022/10/10 18:38:33;;;;;;;13.70;9.37;;;23.10;95.60;;;;;;5053967;28;20452;-59
2022/10/10 18:41:04;;;;;;;13.23;9.80;;;23.10;95.50;;;;;;5047680;28;20469;-57
2022/10/10 18:43:32;;;;;;;14.30;9.63;;;23.10;95.80;;;;;;5036709;28;20554;-59
2022/10/10 18:46:00;;;;;;;15.53;10.57;;;23.10;95.80;;;;;;5042201;28;20466;-55
2022/10/10 18:48:26;;;;;;;11.03;9.00;;;23.00;95.40;;;;;;5045155;28;20541;-57
2022/10/10 18:50:59;;;;;;;13.97;9.67;;;23.10;95.40;;;;;;5033075;28;20497;-58
2022/10/10 18:53:25;;;;;;;13.60;9.73;;;23.10;95.40;;;;;;5034480;28;20462;-59
2022/10/10 18:55:55;;;;;;;14.33;9.47;;;23.00;95.40;;;;;;5051069;28;20484;-60
2022/10/10 18:58:21;;;;;;;13.20;9.80;;;23.00;95.40;;;;;;5054645;28;20462;-57
2022/10/10 19:00:49;;;;;;;13.03;9.70;;;23.00;95.50;;;;;;5045245;28;20461;-59
2022/10/10 19:03:16;;;;;;;11.13;9.40;;;23.00;95.50;;;;;;5041912;28;20481;-54
2022/10/10 19:05:43;;;;;;;12.93;10.80;;;22.90;95.50;;;;;;5035037;28;20466;-56
2022/10/10 19:08:09;;;;;;;11.93;9.80;;;22.90;95.50;;;;;;5052850;28;20463;-58
2022/10/10 19:10:36;;;;;;;11.20;9.57;;;22.90;95.50;;;;;;5043749;28;20462;-59
2022/10/10 19:13:03;;;;;;;12.93;10.30;;;22.90;95.50;;;;;;5045910;28;20461;-59
2022/10/10 19:15:29;;;;;;;13.80;9.90;;;22.90;95.60;;;;;;5039791;28;20998;-55
2022/10/10 19:17:57;;;;;;;11.93;9.50;;;22.80;95.60;;;;;;5047739;28;20477;-56
2022/10/10 19:20:24;;;;;;;11.67;8.93;;;22.80;95.60;;;;;;5043319;28;20538;-57
2022/10/10 19:22:51;;;;;;;12.13;9.90;;;22.80;95.60;;;;;;5042565;28;20485;-59
2022/10/10 19:25:17;;;;;;;11.23;8.93;;;22.80;95.70;;;;;;5031304;28;20462;-54
2022/10/10 19:27:44;;;;;;;11.67;9.20;;;22.80;95.70;;;;;;5038662;28;20461;-59
2022/10/10 19:30:12;;;;;;;10.50;8.90;;;22.70;95.80;;;;;;5046129;28;20801;-57
2022/10/10 19:32:39;;;;;;;12.90;9.30;;;22.70;95.80;;;;;;5037031;28;20461;-56
2022/10/10 19:35:07;;;;;;;11.03;9.83;;;22.70;95.80;;;;;;5042199;28;20469;-55
2022/10/10 19:37:34;;;;;;;14.73;9.53;;;22.70;95.90;;;;;;5047599;28;20458;-58
2022/10/10 19:40:01;;;;;;;11.80;10.33;;;22.70;95.90;;;;;;5042811;28;20473;-59
2022/10/10 19:42:28;;;;;;;10.60;9.50;;;22.70;95.90;;;;;;5031725;28;20842;-58
2022/10/10 19:44:54;;;;;;;11.43;9.53;;;22.70;95.90;;;;;;5033381;28;20458;-54
2022/10/10 19:47:21;;;;;;;12.70;8.97;;;22.70;95.90;;;;;;5037656;28;20453;-59
2022/10/10 19:49:48;;;;;;;13.80;10.00;;;22.70;95.90;;;;;;5039099;28;20485;-55
2022/10/10 19:52:16;;;;;;;11.07;9.03;;;22.70;95.80;;;;;;5033755;28;20468;-59
2022/10/10 19:54:42;;;;;;;11.20;8.60;;;22.80;95.80;;;;;;5033383;28;20494;-58
2022/10/10 19:57:09;;;;;;;10.60;9.40;;;22.80;96.10;;;;;;5038140;28;20832;-56
2022/10/10 19:59:36;;;;;;;10.87;8.70;;;22.90;95.60;;;;;;5035565;28;20453;-54
2022/10/10 20:02:03;;;;;;;9.60;8.47;;;22.90;95.50;;;;;;5033186;28;21011;-57
2022/10/10 20:04:29;;;;;;;11.00;8.73;;;22.90;95.50;;;;;;5036200;28;20455;-59
2022/10/10 20:06:56;;;;;;;11.97;8.73;;;23.00;95.40;;;;;;5033598;28;20463;-56
2022/10/10 20:09:26;;;;;;;10.50;8.60;;;23.00;95.40;;;;;;5041173;28;20458;-58
2022/10/10 20:11:53;;;;;;;9.83;7.03;;;23.00;95.30;;;;;;5050380;28;20840;-59
2022/10/10 20:14:19;;;;;;;12.97;9.17;;;23.00;95.20;;;;;;5031967;28;20465;-59
2022/10/10 20:16:46;;;;;;;9.33;8.07;;;23.00;95.10;;;;;;5032013;28;20478;-54
2022/10/10 20:19:13;;;;;;;10.40;8.77;;;23.00;95.20;;;;;;5030944;28;20454;-57
2022/10/10 20:21:40;;;;;;;10.50;8.60;;;23.00;95.20;;;;;;5030378;28;20461;-57
2022/10/10 20:24:09;;;;;;;9.70;8.47;;;23.00;95.20;;;;;;5037711;28;20455;-56
2022/10/10 20:26:37;;;;;;;11.67;9.17;;;23.00;95.20;;;;;;5057177;28;20461;-57
2022/10/10 20:29:05;;;;;;;11.50;9.10;;;23.00;95.20;;;;;;5034734;28;20466;-58
2022/10/10 20:31:34;;;;;;;10.40;8.73;;;22.90;95.10;;;;;;5037124;28;20454;-59
2022/10/10 20:34:02;;;;;;;11.40;8.80;;;22.90;95.20;;;;;;5049055;28;21049;-58
2022/10/10 20:36:30;;;;;;;10.03;8.60;;;22.90;95.20;;;;;;5040907;28;20500;-54
2022/10/10 20:38:59;;;;;;;12.20;9.40;;;22.90;95.20;;;;;;5034645;28;20457;-56
2022/10/10 20:41:27;;;;;;;11.23;7.90;;;22.90;95.20;;;;;;5051641;28;20467;-59
2022/10/10 20:43:58;;;;;;;11.23;8.53;;;22.80;95.20;;;;;;5032977;28;20529;-58
2022/10/10 20:46:26;;;;;;;10.10;8.00;;;22.80;95.30;;;;;;5037273;28;20464;-59
2022/10/10 20:48:53;;;;;;;10.47;7.63;;;22.80;95.70;;;;;;5040399;28;20466;-58
2022/10/10 20:51:20;;;;;;;9.27;7.87;;;22.80;95.30;;;;;;5036597;28;21250;-57
2022/10/10 20:53:52;;;;;;;11.67;8.57;;;22.80;95.80;;;;;;5044636;28;20821;-59
2022/10/10 20:56:19;;;;;;;11.50;8.97;;;22.80;95.40;;;;;;5042923;28;20553;-58
2022/10/10 20:58:46;;;;;;;13.30;7.90;;;22.80;95.40;;;;;;5032109;28;20513;-60
2022/10/10 21:01:17;;;;;;;10.67;8.70;;;22.80;95.40;;;;;;5046892;28;20863;-57
2022/10/10 21:03:45;;;;;;;9.57;7.73;;;22.70;95.40;;;;;;5047775;28;20481;-58
2022/10/10 21:06:14;;;;;;;12.07;8.10;;;22.70;95.60;;;;;;5034056;28;20465;-57
2022/10/10 21:08:41;;;;;;;11.27;7.07;;;22.70;95.70;;;;;;5041304;28;20442;-59
2022/10/10 21:11:10;;;;;;;8.30;7.27;;;22.70;95.70;;;;;;5043914;28;20465;-58
2022/10/10 21:13:39;;;;;;;11.47;8.60;;;22.70;95.70;;;;;;5030702;28;20457;-59
2022/10/10 21:16:08;;;;;;;11.93;7.73;;;22.70;95.70;;;;;;5054298;28;20458;-59
2022/10/10 21:18:36;;;;;;;11.40;8.07;;;22.70;95.70;;;;;;5028094;28;20481;-59
2022/10/10 21:21:05;;;;;;;9.23;7.47;;;22.70;95.70;;;;;;5044356;28;20872;-56
2022/10/10 21:23:34;;;;;;;8.20;6.97;;;22.60;95.70;;;;;;5037858;28;20488;-57
2022/10/10 21:26:05;;;;;;;11.63;7.77;;;22.60;95.80;;;;;;5042993;28;20460;-59
2022/10/10 21:28:31;;;;;;;8.27;7.20;;;22.60;96.20;;;;;;5042286;28;20456;-59
2022/10/10 21:30:58;;;;;;;10.50;7.90;;;22.60;95.80;;;;;;5043577;28;20461;-58
2022/10/10 21:33:24;;;;;;;9.27;7.80;;;22.60;95.80;;;;;;5051806;28;20472;-56
2022/10/10 21:35:54;;;;;;;10.37;8.00;;;22.60;95.90;;;;;;5034881;28;20484;-58
2022/10/10 21:38:21;;;;;;;8.73;7.77;;;22.60;95.90;;;;;;5041254;28;20464;-57
2022/10/10 21:40:48;;;;;;;7.90;6.60;;;22.60;95.90;;;;;;5047925;28;20465;-59
2022/10/10 21:43:15;;;;;;;9.70;7.57;;;22.60;95.90;;;;;;5036615;28;20481;-58
2022/10/10 21:45:42;;;;;;;8.63;7.20;;;22.60;95.90;;;;;;5034542;28;20439;-58
2022/10/10 21:48:10;;;;;;;9.47;7.30;;;22.60;95.90;;;;;;5033938;28;20442;-58
2022/10/10 21:50:37;;;;;;;9.17;7.10;;;22.60;95.90;;;;;;5040903;28;20458;-59
2022/10/10 21:53:07;;;;;;;8.50;6.70;;;22.60;96.00;;;;;;5042410;28;20458;-54
2022/10/10 21:55:37;;;;;;;8.37;6.77;;;22.60;96.00;;;;;;5047021;28;20450;-60
2022/10/10 21:58:03;;;;;;;11.10;8.97;;;22.60;95.90;;;;;;5037011;28;21245;-58
2022/10/10 22:00:30;;;;;;;9.50;7.80;;;22.60;96.00;;;;;;5041073;28;20462;-58
2022/10/10 22:02:57;;;;;;;8.70;7.80;;;22.60;96.00;;;;;;5046419;28;20481;-59
2022/10/10 22:05:24;;;;;;;11.77;8.27;;;22.60;96.00;;;;;;5034551;28;20458;-59
2022/10/10 22:07:50;;;;;;;10.20;6.90;;;22.50;96.00;;;;;;5034954;28;20470;-58
2022/10/10 22:10:18;;;;;;;9.47;7.27;;;22.60;96.00;;;;;;5049781;28;20462;-54
2022/10/10 22:12:46;;;;;;;10.10;7.30;;;22.60;96.00;;;;;;5040476;28;20466;-58
2022/10/10 22:15:13;;;;;;;9.20;6.70;;;22.60;96.00;;;;;;5034549;28;20822;-57
2022/10/10 22:17:40;;;;;;;8.20;7.33;;;22.50;96.30;;;;;;5037087;28;20485;-59
2022/10/10 22:20:09;;;;;;;9.13;7.60;;;22.60;96.00;;;;;;5040706;28;21845;-58
2022/10/10 22:22:36;;;;;;;7.83;7.03;;;22.50;96.00;;;;;;5041710;28;21058;-59
2022/10/10 22:25:03;;;;;;;8.17;7.37;;;22.50;96.00;;;;;;5048404;28;20457;-59
2022/10/10 22:27:31;;;;;;;10.07;6.67;;;22.50;96.10;;;;;;5040067;28;20972;-59
2022/10/10 22:29:58;;;;;;;9.43;7.27;;;22.50;96.40;;;;;;5047819;28;20489;-58
2022/10/10 22:32:25;;;;;;;10.00;6.70;;;22.50;96.10;;;;;;5033423;28;20446;-56
2022/10/10 22:34:51;;;;;;;8.03;6.50;;;22.50;96.20;;;;;;5038323;28;20462;-54
2022/10/10 22:37:18;;;;;;;9.90;7.00;;;22.50;96.20;;;;;;5033863;28;20466;-59
2022/10/10 22:39:45;;;;;;;9.33;7.70;;;22.50;96.20;;;;;;5033400;28;20458;-55
2022/10/10 22:42:12;;;;;;;10.77;7.57;;;22.50;96.20;;;;;;5032269;28;20469;-59
2022/10/10 22:44:40;;;;;;;9.73;7.37;;;22.50;96.30;;;;;;5044858;28;20481;-58
2022/10/10 22:47:07;;;;;;;9.67;7.10;;;22.40;96.20;;;;;;5049511;28;20466;-56
2022/10/10 22:49:36;;;;;;;9.80;6.53;;;22.40;96.30;;;;;;5037936;28;20450;-55
2022/10/10 22:52:03;;;;;;;9.73;8.00;;;22.40;96.30;;;;;;5034300;28;20492;-57
2022/10/10 22:54:30;;;;;;;8.83;7.33;;;22.40;96.30;;;;;;5049547;28;20828;-58
2022/10/10 22:56:57;;;;;;;11.10;7.10;;;22.40;96.30;;;;;;5037901;28;20466;-54
2022/10/10 22:59:23;;;;;;;9.97;6.07;;;22.40;96.40;;;;;;5043020;28;20457;-55
2022/10/10 23:01:53;;;;;;;9.50;6.77;;;22.40;96.40;;;;;;5040276;28;20468;-52
2022/10/10 23:04:20;;;;;;;7.87;7.07;;;22.40;96.40;;;;;;5031533;28;20517;-59
2022/10/10 23:06:46;;;;;;;11.23;6.90;;;22.40;96.40;;;;;;5031976;28;20485;-57
2022/10/10 23:09:13;;;;;;;10.70;7.17;;;22.40;96.50;;;;;;5036614;28;20464;-55
2022/10/10 23:11:40;;;;;;;10.20;8.13;;;22.30;96.40;;;;;;5042790;28;20821;-58
2022/10/10 23:14:07;;;;;;;7.97;6.40;;;22.30;96.40;;;;;;5037764;28;20470;-59
2022/10/10 23:16:34;;;;;;;7.70;6.00;;;22.30;96.50;;;;;;5047367;28;20480;-59
2022/10/10 23:19:02;;;;;;;8.20;6.70;;;22.20;96.50;;;;;;5044685;28;20823;-59
2022/10/10 23:21:28;;;;;;;9.43;6.33;;;22.30;96.50;;;;;;5044625;28;20457;-59
2022/10/10 23:23:55;;;;;;;11.53;7.47;;;22.20;96.50;;;;;;5043312;28;20654;-59
2022/10/10 23:26:22;;;;;;;9.83;7.70;;;22.20;96.60;;;;;;5045169;28;20955;-58
2022/10/10 23:28:49;;;;;;;10.40;7.10;;;22.20;96.70;;;;;;5050491;28;20465;-58
2022/10/10 23:31:16;;;;;;;10.20;7.40;;;22.20;96.70;;;;;;5048534;28;20462;-53
2022/10/10 23:33:43;;;;;;;9.07;6.60;;;22.20;96.80;;;;;;5030260;28;20473;-59
2022/10/10 23:36:13;;;;;;;13.60;8.13;;;22.10;97.00;;;;;;5027665;28;20481;-52
2022/10/10 23:38:40;;;;;;;9.20;6.87;;;22.10;97.20;;;;;;5035155;28;20457;-59
2022/10/10 23:41:07;;;;;;;8.90;7.47;;;22.10;97.40;;;;;;5042913;28;20473;-56
2022/10/10 23:43:34;;;;;;;12.37;9.13;;;22.10;97.50;;;;;;5038536;28;20476;-59
2022/10/10 23:46:01;;;;;;;9.40;7.67;;;22.00;97.60;;;;;;5051973;28;20441;-59
2022/10/10 23:48:28;;;;;;;11.73;8.57;;;22.00;98.10;;;;;;5042385;28;20828;-56
2022/10/10 23:50:54;;;;;;;10.83;8.60;;;22.00;97.90;;;;;;5044750;28;20461;-59
2022/10/10 23:53:22;;;;;;;9.87;7.03;;;22.00;98.00;;;;;;5043399;28;20459;-59
2022/10/10 23:55:49;;;;;;;9.20;6.80;;;21.90;98.00;;;;;;5049393;28;20457;-59
2022/10/10 23:58:16;;;;;;;9.77;8.47;;;21.90;98.10;;;;;;5042542;28;20485;-56
